Time;durP1;ratioP1;P1;durP2;ratioP2;P2;SDS_P1;SDS_P2;PMS_P1;PMS_P2;Temp;Humidity;BMP_temperature;BMP_pressure;BME280_temperature;BME280_humidity;BME280_pressure;Samples;Min_cycle;Max_cycle;Signal;HPM_P1;HPM_P2
2023/09/25 00:01:02;;;;;;;8.93;6.45;;;;;;;;;;5178170;27;20022;-72
2023/09/25 00:03:47;;;;;;;11.57;6.93;;;;;;;;;;5178018;27;20029;-72
2023/09/25 00:06:33;;;;;;;10.68;6.78;;;;;;;;;;5178888;27;20025;-72
2023/09/25 00:09:19;;;;;;;16.23;7.50;;;;;;;;;;5179240;27;20030;-72
2023/09/25 00:12:05;;;;;;;8.82;6.75;;;;;;;;;;5162240;27;20015;-72
2023/09/25 00:14:50;;;;;;;11.25;7.22;;;;;;;;;;5162781;27;20078;-71
2023/09/25 00:17:36;;;;;;;11.27;6.53;;;;;;;;;;5178784;27;20033;-72
2023/09/25 00:20:24;;;;;;;10.38;7.03;;;;;;;;;;5163249;27;20018;-72
2023/09/25 00:23:10;;;;;;;10.48;7.13;;;;;;;;;;5163663;27;20074;-73
2023/09/25 00:26:02;;;;;;;10.90;6.70;;;;;;;;;;5178069;27;20068;-73
2023/09/25 00:28:47;;;;;;;10.15;6.68;;;;;;;;;;5179797;27;20057;-73
2023/09/25 00:31:33;;;;;;;11.80;6.95;;;;;;;;;;5177965;27;20010;-72
2023/09/25 00:34:18;;;;;;;10.55;6.97;;;;;;;;;;5177033;27;20078;-73
2023/09/25 00:37:04;;;;;;;17.50;8.02;;;;;;;;;;5162898;27;20049;-73
2023/09/25 00:39:50;;;;;;;9.52;7.45;;;;;;;;;;5162372;27;20141;-72
2023/09/25 00:42:35;;;;;;;11.02;7.25;;;;;;;;;;5177462;27;20018;-73
2023/09/25 00:45:22;;;;;;;10.82;8.00;;;;;;;;;;5178171;27;20054;-71
2023/09/25 00:48:16;;;;;;;18.25;8.90;;;;;;;;;;5163354;27;20359;-72
2023/09/25 00:51:01;;;;;;;12.68;8.32;;;;;;;;;;5162655;27;20109;-72
2023/09/25 00:53:48;;;;;;;18.52;8.57;;;;;;;;;;5162384;27;20022;-72
2023/09/25 00:56:34;;;;;;;10.20;8.10;;;;;;;;;;5161992;27;20355;-71
2023/09/25 00:59:21;;;;;;;12.40;8.07;;;;;;;;;;5162863;27;20113;-72
2023/09/25 01:02:07;;;;;;;14.10;9.07;;;;;;;;;;5162663;27;20018;-73
2023/09/25 01:04:52;;;;;;;14.40;9.40;;;;;;;;;;5162449;27;20082;-72
2023/09/25 01:07:38;;;;;;;15.00;9.35;;;;;;;;;;5163248;27;20044;-72
2023/09/25 01:10:26;;;;;;;15.90;9.50;;;;;;;;;;5177908;27;20279;-72
2023/09/25 01:13:11;;;;;;;17.85;10.45;;;;;;;;;;5177551;27;20036;-73
2023/09/25 01:15:57;;;;;;;12.63;9.70;;;;;;;;;;5176698;27;20344;-73
2023/09/25 01:18:42;;;;;;;12.18;10.00;;;;;;;;;;5161898;27;20466;-73
2023/09/25 01:21:28;;;;;;;15.70;9.75;;;;;;;;;;5178069;27;20504;-73
2023/09/25 01:24:13;;;;;;;12.63;9.82;;;;;;;;;;5177134;27;20382;-73
2023/09/25 01:26:59;;;;;;;13.75;9.82;;;;;;;;;;5177560;27;20026;-74
2023/09/25 01:29:45;;;;;;;15.75;9.90;;;;;;;;;;5177369;27;20019;-73
2023/09/25 01:32:30;;;;;;;19.48;10.23;;;;;;;;;;5176361;27;20097;-73
2023/09/25 01:35:17;;;;;;;15.20;10.43;;;;;;;;;;5176913;27;20021;-74
2023/09/25 01:38:06;;;;;;;14.95;9.48;;;;;;;;;;5177242;27;20057;-73
2023/09/25 01:40:51;;;;;;;15.18;9.95;;;;;;;;;;5162406;27;20030;-73
2023/09/25 01:43:37;;;;;;;14.15;9.23;;;;;;;;;;5176803;27;20010;-73
2023/09/25 01:46:23;;;;;;;11.45;8.75;;;;;;;;;;5176836;27;20030;-73
2023/09/25 01:49:08;;;;;;;11.27;8.10;;;;;;;;;;5176139;27;20042;-73
2023/09/25 01:51:54;;;;;;;14.00;9.00;;;;;;;;;;5175994;27;20026;-72
2023/09/25 01:54:39;;;;;;;18.42;9.38;;;;;;;;;;5176631;27;20359;-73
2023/09/25 01:57:25;;;;;;;14.88;9.27;;;;;;;;;;5176033;27;20375;-73
2023/09/25 02:00:12;;;;;;;11.70;8.90;;;;;;;;;;5176655;27;20446;-73
2023/09/25 02:02:58;;;;;;;12.02;9.38;;;;;;;;;;5161739;27;20095;-73
2023/09/25 02:05:44;;;;;;;12.73;9.68;;;;;;;;;;5177102;27;20022;-72
2023/09/25 02:08:31;;;;;;;15.57;9.40;;;;;;;;;;5177691;27;20022;-73
2023/09/25 02:11:16;;;;;;;13.02;9.73;;;;;;;;;;5160237;27;20045;-73
2023/09/25 02:14:02;;;;;;;13.75;9.23;;;;;;;;;;5176986;27;20030;-74
2023/09/25 02:16:48;;;;;;;16.10;9.77;;;;;;;;;;5175190;27;20011;-74
2023/09/25 02:19:34;;;;;;;13.98;10.23;;;;;;;;;;5177183;27;20026;-73
2023/09/25 02:22:19;;;;;;;18.50;10.27;;;;;;;;;;5161031;27;20344;-73
2023/09/25 02:25:05;;;;;;;12.23;10.13;;;;;;;;;;5176339;27;20508;-73
2023/09/25 02:27:51;;;;;;;13.80;10.00;;;;;;;;;;5161225;27;20039;-73
2023/09/25 02:30:36;;;;;;;12.70;10.25;;;;;;;;;;5160473;27;20014;-73
2023/09/25 02:33:22;;;;;;;15.40;9.45;;;;;;;;;;5176965;27;20443;-73
2023/09/25 02:36:11;;;;;;;13.77;9.85;;;;;;;;;;5175546;27;20058;-72
2023/09/25 02:38:57;;;;;;;17.80;10.93;;;;;;;;;;5176288;27;20337;-72
2023/09/25 02:41:42;;;;;;;12.27;10.15;;;;;;;;;;5176455;27;20348;-72
2023/09/25 02:44:28;;;;;;;14.70;10.00;;;;;;;;;;5175561;27;20014;-72
2023/09/25 02:47:13;;;;;;;13.73;10.57;;;;;;;;;;5176387;27;20019;-72
2023/09/25 02:50:00;;;;;;;17.65;10.98;;;;;;;;;;5175512;27;20049;-71
2023/09/25 02:52:45;;;;;;;15.25;10.77;;;;;;;;;;5176020;27;20010;-71
2023/09/25 02:55:31;;;;;;;17.17;11.00;;;;;;;;;;5159793;27;20053;-72
2023/09/25 02:58:17;;;;;;;18.77;11.73;;;;;;;;;;5161252;27;20030;-72
2023/09/25 03:01:02;;;;;;;14.18;10.80;;;;;;;;;;5176564;27;20022;-71
2023/09/25 03:03:48;;;;;;;16.27;11.82;;;;;;;;;;5161223;27;20464;-71
2023/09/25 03:06:34;;;;;;;20.55;12.27;;;;;;;;;;5161867;27;20490;-72
2023/09/25 03:09:19;;;;;;;17.83;12.57;;;;;;;;;;5160456;27;20019;-72
2023/09/25 03:12:05;;;;;;;19.75;13.77;;;;;;;;;;5175305;27;20022;-72
2023/09/25 03:14:51;;;;;;;17.05;13.02;;;;;;;;;;5176215;27;20440;-72
2023/09/25 03:17:37;;;;;;;18.67;12.93;;;;;;;;;;5175417;27;20428;-72
2023/09/25 03:20:23;;;;;;;25.30;14.05;;;;;;;;;;5175282;27;20112;-72
2023/09/25 03:23:09;;;;;;;24.83;14.07;;;;;;;;;;5176315;27;20393;-72
2023/09/25 03:25:55;;;;;;;21.65;13.90;;;;;;;;;;5160858;27;20045;-72
2023/09/25 03:28:40;;;;;;;23.50;14.63;;;;;;;;;;5174545;27;20308;-73
2023/09/25 03:31:26;;;;;;;25.15;15.63;;;;;;;;;;5176345;27;20351;-71
2023/09/25 03:34:12;;;;;;;23.85;15.02;;;;;;;;;;5175972;27;20022;-71
2023/09/25 03:36:57;;;;;;;22.30;14.90;;;;;;;;;;5175041;27;20097;-71
2023/09/25 03:39:43;;;;;;;23.50;14.90;;;;;;;;;;5179706;27;20061;-71
2023/09/25 03:42:28;;;;;;;23.60;14.88;;;;;;;;;;5178766;27;20022;-71
2023/09/25 03:45:14;;;;;;;19.80;14.10;;;;;;;;;;5178803;27;20037;-71
2023/09/25 03:47:59;;;;;;;24.05;14.57;;;;;;;;;;5179717;27;20416;-71
2023/09/25 03:50:45;;;;;;;19.63;13.30;;;;;;;;;;5162998;27;20061;-71
2023/09/25 03:53:31;;;;;;;18.92;11.98;;;;;;;;;;5179613;27;20010;-71
2023/09/25 03:56:16;;;;;;;15.10;10.70;;;;;;;;;;5179563;27;20018;-71
2023/09/25 03:59:02;;;;;;;15.57;10.82;;;;;;;;;;5178304;27;20362;-71
2023/09/25 04:01:48;;;;;;;18.23;12.18;;;;;;;;;;5164036;27;20018;-71
2023/09/25 04:04:33;;;;;;;14.80;11.20;;;;;;;;;;5163709;27;20022;-71
2023/09/25 04:07:19;;;;;;;21.33;12.30;;;;;;;;;;5179477;27;20070;-71
2023/09/25 04:10:07;;;;;;;16.48;12.07;;;;;;;;;;5162942;27;20014;-73
2023/09/25 04:12:53;;;;;;;14.73;10.95;;;;;;;;;;5179257;27;20079;-72
2023/09/25 04:15:40;;;;;;;20.95;12.13;;;;;;;;;;5162896;27;20074;-71
2023/09/25 04:18:25;;;;;;;17.70;11.43;;;;;;;;;;5163698;27;20033;-73
2023/09/25 04:21:14;;;;;;;20.52;11.25;;;;;;;;;;5163332;27;20042;-72
2023/09/25 04:24:03;;;;;;;19.50;11.50;;;;;;;;;;5178963;27;20018;-72
2023/09/25 04:26:49;;;;;;;17.83;10.82;;;;;;;;;;5162819;27;20018;-73
2023/09/25 04:29:34;;;;;;;15.93;10.77;;;;;;;;;;5178108;27;20442;-72
2023/09/25 04:32:20;;;;;;;14.93;10.15;;;;;;;;;;5164153;27;20018;-73
2023/09/25 04:35:07;;;;;;;17.35;10.50;;;;;;;;;;5163749;27;20030;-72
2023/09/25 04:37:54;;;;;;;15.70;10.80;;;;;;;;;;5162438;27;20026;-72
2023/09/25 04:40:41;;;;;;;19.05;11.30;;;;;;;;;;5178291;27;20045;-73
2023/09/25 04:43:27;;;;;;;21.77;11.80;;;;;;;;;;5177221;27;20109;-72
2023/09/25 04:46:13;;;;;;;24.65;12.77;;;;;;;;;;5162972;27;20061;-72
2023/09/25 04:49:00;;;;;;;20.27;12.88;;;;;;;;;;5162045;27;20042;-72
2023/09/25 04:51:46;;;;;;;19.45;13.05;;;;;;;;;;5163384;27;20454;-72
2023/09/25 04:54:31;;;;;;;28.75;13.32;;;;;;;;;;5178328;27;20174;-73
2023/09/25 04:57:17;;;;;;;25.17;14.23;;;;;;;;;;5162676;27;20011;-73
2023/09/25 05:00:12;;;;;;;27.10;14.45;;;;;;;;;;5178176;27;20022;-73
2023/09/25 05:02:58;;;;;;;24.55;13.70;;;;;;;;;;5176988;27;20014;-71
2023/09/25 05:05:44;;;;;;;24.33;13.95;;;;;;;;;;5178088;27;20054;-71
2023/09/25 05:08:30;;;;;;;25.60;13.70;;;;;;;;;;5177868;27;20018;-71
2023/09/25 05:11:15;;;;;;;20.42;13.10;;;;;;;;;;5163039;27;20055;-73
2023/09/25 05:14:01;;;;;;;22.10;13.68;;;;;;;;;;5178407;27;20060;-73
2023/09/25 05:16:46;;;;;;;21.42;12.73;;;;;;;;;;5178283;27;20544;-72
2023/09/25 05:19:32;;;;;;;25.08;12.60;;;;;;;;;;5177938;27;20407;-72
2023/09/25 05:22:18;;;;;;;34.28;13.00;;;;;;;;;;5176995;27;20018;-71
2023/09/25 05:25:06;;;;;;;25.38;12.82;;;;;;;;;;5175960;27;20022;-71
2023/09/25 05:27:52;;;;;;;18.42;12.65;;;;;;;;;;5177589;27;20027;-72
2023/09/25 05:30:37;;;;;;;21.25;12.80;;;;;;;;;;5176489;27;20010;-72
2023/09/25 05:33:23;;;;;;;19.52;13.30;;;;;;;;;;5176805;27;20006;-73
2023/09/25 05:36:09;;;;;;;26.58;13.35;;;;;;;;;;5177281;27;20432;-71
2023/09/25 05:38:55;;;;;;;22.65;12.23;;;;;;;;;;5178129;27;20400;-70
2023/09/25 05:41:41;;;;;;;20.60;12.50;;;;;;;;;;5177221;27;20022;-71
2023/09/25 05:44:26;;;;;;;22.85;13.15;;;;;;;;;;5178140;27;20054;-70
2023/09/25 05:47:12;;;;;;;24.67;13.77;;;;;;;;;;5177561;27;20046;-71
2023/09/25 05:49:58;;;;;;;20.95;12.45;;;;;;;;;;5176949;27;20042;-71
2023/09/25 05:52:43;;;;;;;25.52;12.55;;;;;;;;;;5177148;27;20078;-70
2023/09/25 05:55:29;;;;;;;22.13;13.38;;;;;;;;;;5175866;27;20046;-71
2023/09/25 05:58:16;;;;;;;26.52;13.88;;;;;;;;;;5177135;27;20058;-71
2023/09/25 06:01:01;;;;;;;27.27;13.23;;;;;;;;;;5175986;27;20057;-72
2023/09/25 06:03:49;;;;;;;23.67;14.25;;;;;;;;;;5177007;27;20018;-72
2023/09/25 06:06:35;;;;;;;22.63;12.60;;;;;;;;;;5176178;27;20363;-71
2023/09/25 06:09:21;;;;;;;22.17;13.88;;;;;;;;;;5176351;27;20019;-72
2023/09/25 06:12:09;;;;;;;24.15;13.88;;;;;;;;;;5176019;27;20018;-71
2023/09/25 06:14:54;;;;;;;28.85;13.30;;;;;;;;;;5161616;27;20332;-71
2023/09/25 06:17:40;;;;;;;20.58;13.27;;;;;;;;;;5161482;27;20120;-72
2023/09/25 06:20:27;;;;;;;18.05;12.32;;;;;;;;;;5176192;27;20034;-71
2023/09/25 06:23:13;;;;;;;22.42;12.30;;;;;;;;;;5160800;27;20541;-71
2023/09/25 06:25:59;;;;;;;24.33;12.70;;;;;;;;;;5176735;27;20022;-72
2023/09/25 06:28:45;;;;;;;28.27;13.45;;;;;;;;;;5175637;27;20090;-72
2023/09/25 06:31:31;;;;;;;22.73;12.93;;;;;;;;;;5175797;27;20022;-72
2023/09/25 06:34:16;;;;;;;21.48;12.82;;;;;;;;;;5176789;27;20014;-71
2023/09/25 06:37:02;;;;;;;20.45;12.15;;;;;;;;;;5175364;27;20010;-71
2023/09/25 06:39:47;;;;;;;19.02;12.07;;;;;;;;;;5175006;27;20081;-72
2023/09/25 06:42:33;;;;;;;22.42;12.40;;;;;;;;;;5176664;27;20359;-72
2023/09/25 06:45:21;;;;;;;29.75;11.75;;;;;;;;;;5175792;27;20032;-72
2023/09/25 06:48:07;;;;;;;36.85;12.57;;;;;;;;;;5175231;27;20018;-74
2023/09/25 06:50:52;;;;;;;21.90;11.52;;;;;;;;;;5175269;27;20372;-73
2023/09/25 06:53:38;;;;;;;22.98;11.50;;;;;;;;;;5161193;27;20026;-72
2023/09/25 06:56:24;;;;;;;22.50;12.00;;;;;;;;;;5159988;27;20044;-73
2023/09/25 06:59:09;;;;;;;25.30;11.32;;;;;;;;;;5175994;27;20033;-72
2023/09/25 07:01:55;;;;;;;18.15;11.02;;;;;;;;;;5176499;27;20086;-73
2023/09/25 07:04:41;;;;;;;22.60;11.10;;;;;;;;;;5176337;27;20026;-73
2023/09/25 07:07:27;;;;;;;26.60;10.75;;;;;;;;;;5160998;27;20474;-72
2023/09/25 07:10:13;;;;;;;23.48;10.02;;;;;;;;;;5175385;27;20087;-72
2023/09/25 07:12:58;;;;;;;34.72;10.63;;;;;;;;;;5177376;27;20354;-73
2023/09/25 07:15:44;;;;;;;41.95;11.23;;;;;;;;;;5180395;27;20021;-72
2023/09/25 07:18:30;;;;;;;24.65;11.02;;;;;;;;;;5180066;27;20014;-74
2023/09/25 07:21:15;;;;;;;23.08;10.13;;;;;;;;;;5179816;27;20019;-72
2023/09/25 07:24:04;;;;;;;30.88;11.25;;;;;;;;;;5179922;27;20022;-71
2023/09/25 07:26:51;;;;;;;16.73;9.07;;;;;;;;;;5180023;27;20089;-73
2023/09/25 07:29:37;;;;;;;23.50;10.20;;;;;;;;;;5180217;27;20019;-74
2023/09/25 07:32:23;;;;;;;17.58;9.65;;;;;;;;;;5178031;27;20071;-72
2023/09/25 07:35:10;;;;;;;24.83;9.82;;;;;;;;;;5164842;27;20083;-73
2023/09/25 07:37:56;;;;;;;24.02;9.75;;;;;;;;;;5179711;27;20471;-72
2023/09/25 07:40:41;;;;;;;22.60;10.30;;;;;;;;;;5179068;27;20026;-72
2023/09/25 07:43:29;;;;;;;45.90;10.90;;;;;;;;;;5178723;27;20027;-72
2023/09/25 07:46:17;;;;;;;16.30;9.88;;;;;;;;;;5163221;27;20022;-72
2023/09/25 07:49:03;;;;;;;17.25;9.95;;;;;;;;;;5164220;27;20035;-72
2023/09/25 07:51:49;;;;;;;19.33;9.95;;;;;;;;;;5164259;27;20018;-73
2023/09/25 07:54:34;;;;;;;19.58;9.43;;;;;;;;;;5164876;27;20045;-73
2023/09/25 07:57:20;;;;;;;24.45;9.98;;;;;;;;;;5179282;27;20022;-71
2023/09/25 08:00:24;;;;;;;18.45;9.60;;;;;;;;;;5179223;27;20037;-74
2023/09/25 08:03:14;;;;;;;20.35;11.45;;;;;;;;;;5179128;27;20475;-72
2023/09/25 08:06:05;;;;;;;23.83;9.93;;;;;;;;;;5163799;27;20018;-72
2023/09/25 08:08:51;;;;;;;16.83;9.20;;;;;;;;;;5179689;27;20015;-73
2023/09/25 08:11:37;;;;;;;32.78;10.57;;;;;;;;;;5180160;27;20022;-73
2023/09/25 08:14:23;;;;;;;33.97;10.40;;;;;;;;;;5178581;27;20025;-73
2023/09/25 08:17:08;;;;;;;20.15;9.27;;;;;;;;;;5163588;27;20018;-73
2023/09/25 08:19:54;;;;;;;16.95;8.90;;;;;;;;;;5162909;27;20086;-75
2023/09/25 08:22:41;;;;;;;13.55;8.50;;;;;;;;;;5179078;27;20007;-73
2023/09/25 08:25:27;;;;;;;73.18;13.52;;;;;;;;;;5180469;27;20022;-73
2023/09/25 08:28:14;;;;;;;21.40;8.90;;;;;;;;;;5179030;27;20018;-74
2023/09/25 08:30:59;;;;;;;20.48;8.25;;;;;;;;;;5178240;27;20024;-68
2023/09/25 08:33:45;;;;;;;22.70;8.77;;;;;;;;;;5177990;27;20093;-67
2023/09/25 08:36:31;;;;;;;17.10;7.90;;;;;;;;;;5177242;27;20343;-70
2023/09/25 08:39:17;;;;;;;15.50;7.78;;;;;;;;;;5163284;27;20175;-69
2023/09/25 08:42:03;;;;;;;38.92;10.63;;;;;;;;;;5178035;27;20455;-69
2023/09/25 08:44:53;;;;;;;20.95;8.38;;;;;;;;;;5163219;27;20030;-69
2023/09/25 08:47:40;;;;;;;86.45;13.88;;;;;;;;;;5178444;27;20014;-70
2023/09/25 08:50:25;;;;;;;18.13;8.75;;;;;;;;;;5161987;27;20103;-69
2023/09/25 08:53:11;;;;;;;16.55;7.40;;;;;;;;;;5178602;27;20100;-71
2023/09/25 08:55:56;;;;;;;12.73;7.68;;;;;;;;;;5178070;27;20439;-70
2023/09/25 08:58:45;;;;;;;12.30;7.28;;;;;;;;;;5163249;27;20026;-69
2023/09/25 09:01:31;;;;;;;18.45;7.55;;;;;;;;;;5177755;27;20098;-69
2023/09/25 09:04:17;;;;;;;16.25;7.72;;;;;;;;;;5165093;27;20018;-67
2023/09/25 09:07:04;;;;;;;20.77;7.70;;;;;;;;;;5179276;27;20047;-69
2023/09/25 09:09:51;;;;;;;19.50;7.78;;;;;;;;;;5178894;27;20043;-69
2023/09/25 09:12:50;;;;;;;15.27;7.75;;;;;;;;;;5161826;27;20014;-69
2023/09/25 09:15:37;;;;;;;75.90;13.63;;;;;;;;;;5162622;27;20026;-69
2023/09/25 09:18:23;;;;;;;40.35;9.38;;;;;;;;;;5161525;27;20441;-69
2023/09/25 09:21:21;;;;;;;95.78;14.50;;;;;;;;;;5177771;27;20026;-69
2023/09/25 09:24:17;;;;;;;89.53;12.85;;;;;;;;;;5177413;27;20022;-69
2023/09/25 09:27:07;;;;;;;17.33;7.32;;;;;;;;;;5161911;27;20432;-70
2023/09/25 09:29:52;;;;;;;16.33;7.10;;;;;;;;;;5176490;27;20015;-70
2023/09/25 09:32:39;;;;;;;9.98;7.28;;;;;;;;;;5176286;27;20010;-69
2023/09/25 09:35:26;;;;;;;13.77;7.53;;;;;;;;;;5176865;27;20403;-69
2023/09/25 09:38:12;;;;;;;14.80;7.13;;;;;;;;;;5175805;27;20026;-70
2023/09/25 09:40:58;;;;;;;19.02;6.55;;;;;;;;;;5177792;27;20028;-69
2023/09/25 09:43:46;;;;;;;23.42;7.05;;;;;;;;;;5161483;27;20026;-69
2023/09/25 09:46:32;;;;;;;14.68;6.60;;;;;;;;;;5176333;27;20022;-70
2023/09/25 09:49:20;;;;;;;31.38;8.27;;;;;;;;;;5177154;27;20526;-69
2023/09/25 09:52:06;;;;;;;15.27;6.55;;;;;;;;;;5176312;27;20063;-69
2023/09/25 09:54:53;;;;;;;15.65;6.82;;;;;;;;;;5176745;27;20025;-68
2023/09/25 09:57:39;;;;;;;19.95;6.55;;;;;;;;;;5176144;27;20058;-68
2023/09/25 10:00:24;;;;;;;24.42;6.93;;;;;;;;;;5160572;27;20316;-69
2023/09/25 10:03:10;;;;;;;43.95;7.25;;;;;;;;;;5176104;27;20022;-69
2023/09/25 10:05:56;;;;;;;40.65;6.75;;;;;;;;;;5176227;27;20026;-69
2023/09/25 10:09:01;;;;;;;16.40;5.85;;;;;;;;;;5176110;27;20075;-69
2023/09/25 10:11:52;;;;;;;99.63;11.93;;;;;;;;;;5176947;27;20046;-69
2023/09/25 10:14:40;;;;;;;23.30;7.00;;;;;;;;;;5176605;27;20022;-69
2023/09/25 10:17:42;;;;;;;18.30;6.70;;;;;;;;;;5162680;27;20427;-70
2023/09/25 10:20:30;;;;;;;24.95;6.13;;;;;;;;;;5162279;27;20023;-69
2023/09/25 10:23:19;;;;;;;74.80;8.50;;;;;;;;;;5176225;27;20083;-69
2023/09/25 10:26:09;;;;;;;125.10;11.98;;;;;;;;;;5161809;27;20105;-69
2023/09/25 10:29:10;;;;;;;25.00;5.95;;;;;;;;;;5175582;27;20030;-70
2023/09/25 10:31:57;;;;;;;57.47;7.05;;;;;;;;;;5160656;27;20101;-69
2023/09/25 10:34:43;;;;;;;12.25;5.57;;;;;;;;;;5177664;27;20022;-69
2023/09/25 10:37:30;;;;;;;23.58;6.07;;;;;;;;;;5176616;27;20101;-69
2023/09/25 10:40:16;;;;;;;13.13;5.07;;;;;;;;;;5176399;27;20022;-70
2023/09/25 10:43:02;;;;;;;49.42;6.78;;;;;;;;;;5176849;27;20022;-68
2023/09/25 10:45:48;;;;;;;20.50;5.70;;;;;;;;;;5176697;27;20015;-70
2023/09/25 10:48:33;;;;;;;15.52;5.40;;;;;;;;;;5184055;27;20014;-69
2023/09/25 10:51:20;;;;;;;14.57;5.22;;;;;;;;;;5183016;27;20038;-69
2023/09/25 10:54:06;;;;;;;28.10;6.45;;;;;;;;;;5184189;27;20014;-69
2023/09/25 10:56:53;;;;;;;40.22;6.63;;;;;;;;;;5184204;27;20064;-69
2023/09/25 10:59:39;;;;;;;20.42;5.85;;;;;;;;;;5182381;27;20029;-68
2023/09/25 11:02:24;;;;;;;14.25;4.82;;;;;;;;;;5182482;27;20351;-68
2023/09/25 11:05:21;;;;;;;16.23;4.63;;;;;;;;;;5182955;27;20089;-68
2023/09/25 11:08:09;;;;;;;22.80;5.40;;;;;;;;;;5183253;27;20093;-70
2023/09/25 11:10:55;;;;;;;16.67;5.40;;;;;;;;;;5183494;27;20097;-69
2023/09/25 11:13:41;;;;;;;14.95;5.00;;;;;;;;;;5182978;27;20014;-68
2023/09/25 11:16:27;;;;;;;18.05;4.90;;;;;;;;;;5183712;27;20030;-69
2023/09/25 11:19:14;;;;;;;17.13;4.85;;;;;;;;;;5183523;27;20014;-69
2023/09/25 11:22:01;;;;;;;17.65;6.95;;;;;;;;;;5169942;27;20439;-69
2023/09/25 11:24:54;;;;;;;15.48;4.97;;;;;;;;;;5183311;27;20086;-69
2023/09/25 11:27:49;;;;;;;15.25;5.03;;;;;;;;;;5185150;27;20098;-70
2023/09/25 11:30:37;;;;;;;15.18;5.05;;;;;;;;;;5184125;27;20087;-69
2023/09/25 11:33:23;;;;;;;14.60;4.93;;;;;;;;;;5168399;27;20336;-69
2023/09/25 11:36:10;;;;;;;11.32;4.72;;;;;;;;;;5183405;27;20419;-69
2023/09/25 11:38:55;;;;;;;13.90;4.40;;;;;;;;;;5182410;27;20482;-69
2023/09/25 11:41:41;;;;;;;18.02;5.00;;;;;;;;;;5183107;27;20033;-69
2023/09/25 11:44:26;;;;;;;15.32;4.78;;;;;;;;;;5182469;27;20309;-69
2023/09/25 11:47:12;;;;;;;14.73;4.60;;;;;;;;;;5183037;27;20014;-69
2023/09/25 11:49:58;;;;;;;15.07;4.82;;;;;;;;;;5182667;27;20038;-68
2023/09/25 11:52:44;;;;;;;11.63;4.65;;;;;;;;;;5183175;27;20051;-69
2023/09/25 11:55:29;;;;;;;13.23;5.00;;;;;;;;;;5182344;27;20022;-69
2023/09/25 11:58:15;;;;;;;16.60;4.35;;;;;;;;;;5180788;27;20507;-69
2023/09/25 12:01:02;;;;;;;12.35;4.35;;;;;;;;;;5178792;27;20401;-68
2023/09/25 12:03:48;;;;;;;30.02;5.05;;;;;;;;;;5178962;27;20018;-68
2023/09/25 12:06:34;;;;;;;17.73;5.03;;;;;;;;;;5176511;27;20059;-70
2023/09/25 12:09:20;;;;;;;15.48;4.80;;;;;;;;;;5180655;27;20418;-70
2023/09/25 12:12:05;;;;;;;16.85;4.38;;;;;;;;;;5180544;27;20400;-70
2023/09/25 12:14:56;;;;;;;19.98;4.32;;;;;;;;;;5180100;27;20025;-71
2023/09/25 12:17:42;;;;;;;11.05;4.55;;;;;;;;;;5177877;27;20061;-71
2023/09/25 12:20:28;;;;;;;23.20;4.38;;;;;;;;;;5177626;27;20026;-71
2023/09/25 12:23:14;;;;;;;19.40;4.07;;;;;;;;;;5170505;27;20015;-72
2023/09/25 12:26:00;;;;;;;14.82;4.32;;;;;;;;;;5156828;27;20034;-71
2023/09/25 12:28:46;;;;;;;17.83;4.50;;;;;;;;;;5161532;27;20011;-70
2023/09/25 12:31:31;;;;;;;15.65;4.60;;;;;;;;;;5161286;27;20053;-69
2023/09/25 12:34:17;;;;;;;10.27;3.75;;;;;;;;;;5157562;27;20091;-71
2023/09/25 12:37:02;;;;;;;12.85;4.10;;;;;;;;;;5157159;27;20452;-71
2023/09/25 12:39:48;;;;;;;13.82;3.95;;;;;;;;;;5157201;27;20115;-71
2023/09/25 12:42:34;;;;;;;21.75;4.50;;;;;;;;;;5157310;27;20049;-72
2023/09/25 12:45:20;;;;;;;18.88;3.90;;;;;;;;;;5157558;27;20083;-72
2023/09/25 12:48:06;;;;;;;15.40;3.70;;;;;;;;;;5159883;27;20106;-70
2023/09/25 12:50:51;;;;;;;18.10;4.25;;;;;;;;;;5172953;27;20074;-70
2023/09/25 12:53:37;;;;;;;16.42;4.35;;;;;;;;;;5178690;27;20020;-69
2023/09/25 12:56:22;;;;;;;23.67;4.00;;;;;;;;;;5162976;27;20093;-70
2023/09/25 12:59:08;;;;;;;14.32;4.10;;;;;;;;;;5177308;27;20436;-70
2023/09/25 13:01:54;;;;;;;16.00;3.95;;;;;;;;;;5177759;27;20022;-70
2023/09/25 13:04:40;;;;;;;13.60;3.92;;;;;;;;;;5163458;27;20064;-69
2023/09/25 13:07:25;;;;;;;14.55;4.10;;;;;;;;;;5177375;27;20329;-69
2023/09/25 13:10:12;;;;;;;23.30;4.75;;;;;;;;;;5176114;27;20452;-69
2023/09/25 13:12:58;;;;;;;14.50;3.72;;;;;;;;;;5163981;27;20121;-69
2023/09/25 13:15:43;;;;;;;15.48;3.90;;;;;;;;;;5177736;27;20030;-70
2023/09/25 13:18:29;;;;;;;12.68;3.33;;;;;;;;;;5178092;27;20375;-69
2023/09/25 13:21:14;;;;;;;14.80;3.58;;;;;;;;;;5179351;27;20074;-69
2023/09/25 13:24:00;;;;;;;15.40;3.78;;;;;;;;;;5178586;27;20077;-69
2023/09/25 13:26:46;;;;;;;9.48;3.40;;;;;;;;;;5177611;27;20026;-70
2023/09/25 13:29:31;;;;;;;7.75;3.33;;;;;;;;;;5162764;27;20086;-69
2023/09/25 13:32:17;;;;;;;11.88;3.95;;;;;;;;;;5163054;27;20030;-69
2023/09/25 13:35:03;;;;;;;14.75;3.72;;;;;;;;;;5162165;27;20033;-69
2023/09/25 13:37:48;;;;;;;8.73;3.42;;;;;;;;;;5177616;27;20073;-70
2023/09/25 13:40:34;;;;;;;15.30;3.90;;;;;;;;;;5177240;27;20065;-69
2023/09/25 13:43:20;;;;;;;13.60;3.58;;;;;;;;;;5180231;27;20064;-69
2023/09/25 13:46:06;;;;;;;19.48;3.80;;;;;;;;;;5163967;27;20089;-69
2023/09/25 13:48:51;;;;;;;9.85;3.75;;;;;;;;;;5164783;27;20030;-70
2023/09/25 13:51:37;;;;;;;16.50;3.80;;;;;;;;;;5178855;27;20046;-70
2023/09/25 13:54:23;;;;;;;12.40;3.40;;;;;;;;;;5177981;27;20364;-70
2023/09/25 13:57:08;;;;;;;21.60;4.10;;;;;;;;;;5177694;27;20018;-70
2023/09/25 13:59:54;;;;;;;15.10;4.10;;;;;;;;;;5168965;27;20298;-70
2023/09/25 14:02:40;;;;;;;12.93;3.80;;;;;;;;;;5157271;27;20411;-70
2023/09/25 14:05:26;;;;;;;14.30;3.42;;;;;;;;;;5157688;27;20022;-70
2023/09/25 14:08:11;;;;;;;8.95;3.60;;;;;;;;;;5158700;27;20027;-69
2023/09/25 14:11:00;;;;;;;13.25;3.80;;;;;;;;;;5156726;27;20019;-69
2023/09/25 14:13:46;;;;;;;11.93;3.75;;;;;;;;;;5157689;27;20074;-70
2023/09/25 14:16:31;;;;;;;7.75;3.90;;;;;;;;;;5156736;27;20106;-69
2023/09/25 14:19:17;;;;;;;13.82;4.18;;;;;;;;;;5155918;27;20427;-69
2023/09/25 14:22:03;;;;;;;9.85;3.58;;;;;;;;;;5155088;27;20106;-70
2023/09/25 14:24:49;;;;;;;14.88;4.03;;;;;;;;;;5154765;27;20495;-70
2023/09/25 14:27:35;;;;;;;6.88;3.60;;;;;;;;;;5155046;27;20034;-70
2023/09/25 14:30:20;;;;;;;15.75;4.10;;;;;;;;;;5154666;27;20018;-70
2023/09/25 14:33:06;;;;;;;14.32;3.58;;;;;;;;;;5154747;27;20014;-70
2023/09/25 14:35:52;;;;;;;7.13;3.50;;;;;;;;;;5155249;27;20055;-70
2023/09/25 14:38:38;;;;;;;18.38;4.15;;;;;;;;;;5154340;27;20018;-71
2023/09/25 14:41:23;;;;;;;12.77;4.10;;;;;;;;;;5154855;27;20030;-70
2023/09/25 14:44:09;;;;;;;13.65;3.78;;;;;;;;;;5154384;27;20021;-70
2023/09/25 14:46:55;;;;;;;11.50;3.72;;;;;;;;;;5154595;27;20428;-70
2023/09/25 14:49:40;;;;;;;15.07;4.10;;;;;;;;;;5154187;27;20043;-70
2023/09/25 14:52:26;;;;;;;12.27;3.60;;;;;;;;;;5154104;27;20076;-69
2023/09/25 14:55:12;;;;;;;11.18;3.70;;;;;;;;;;5154212;27;20079;-70
2023/09/25 14:57:57;;;;;;;9.82;3.60;;;;;;;;;;5154458;27;20041;-70
2023/09/25 15:00:43;;;;;;;17.20;4.18;;;;;;;;;;5171215;27;20455;-70
2023/09/25 15:03:28;;;;;;;16.42;3.75;;;;;;;;;;5161248;27;20083;-69
2023/09/25 15:06:15;;;;;;;8.25;3.50;;;;;;;;;;5175620;27;20049;-70
2023/09/25 15:09:01;;;;;;;18.40;3.95;;;;;;;;;;5175619;27;20102;-69
2023/09/25 15:11:46;;;;;;;9.18;3.60;;;;;;;;;;5175650;27;20366;-71
2023/09/25 15:14:32;;;;;;;12.77;3.70;;;;;;;;;;5175295;27;20018;-72
2023/09/25 15:17:19;;;;;;;16.23;4.18;;;;;;;;;;5176221;27;20022;-70
2023/09/25 15:20:05;;;;;;;13.48;4.20;;;;;;;;;;5175473;27;20074;-70
2023/09/25 15:22:51;;;;;;;13.00;4.07;;;;;;;;;;5174496;27;20424;-71
2023/09/25 15:25:37;;;;;;;15.82;4.05;;;;;;;;;;5176302;27;20436;-71
2023/09/25 15:28:23;;;;;;;10.05;3.90;;;;;;;;;;5173914;27;20101;-70
2023/09/25 15:31:08;;;;;;;16.92;4.25;;;;;;;;;;5176148;27;20105;-70
2023/09/25 15:33:54;;;;;;;16.77;3.97;;;;;;;;;;5176866;27;20026;-71
2023/09/25 15:36:39;;;;;;;20.05;4.57;;;;;;;;;;5179206;27;20443;-70
2023/09/25 15:39:25;;;;;;;13.43;4.25;;;;;;;;;;5180555;27;20037;-69
2023/09/25 15:42:12;;;;;;;11.98;4.35;;;;;;;;;;5179185;27;20046;-71
2023/09/25 15:44:57;;;;;;;16.15;3.95;;;;;;;;;;5178441;27;20090;-71
2023/09/25 15:47:43;;;;;;;10.68;3.97;;;;;;;;;;5164741;27;20030;-70
2023/09/25 15:50:29;;;;;;;12.00;4.05;;;;;;;;;;5178904;27;20061;-70
2023/09/25 15:53:14;;;;;;;13.68;4.15;;;;;;;;;;5192103;27;20026;-70
2023/09/25 15:56:01;;;;;;;9.45;3.95;;;;;;;;;;5180423;27;20025;-71
2023/09/25 15:58:48;;;;;;;13.65;3.65;;;;;;;;;;5171678;27;20034;-74
2023/09/25 16:01:34;;;;;;;9.68;3.70;;;;;;;;;;5159813;27;20114;-70
2023/09/25 16:04:20;;;;;;;11.10;4.32;;;;;;;;;;5158794;27;20054;-71
2023/09/25 16:07:06;;;;;;;14.32;4.18;;;;;;;;;;5158058;27;20022;-71
2023/09/25 16:09:51;;;;;;;15.68;4.43;;;;;;;;;;5156975;27;20010;-71
2023/09/25 16:12:37;;;;;;;10.98;4.05;;;;;;;;;;5158294;27;20019;-71
2023/09/25 16:15:23;;;;;;;14.07;4.20;;;;;;;;;;5157876;27;20022;-71
2023/09/25 16:18:10;;;;;;;15.80;4.40;;;;;;;;;;5157617;27;20027;-72